KGLW/GLW METAR and TAF weather

Enter ICAO airport designator
Station Type Date Time Source
KGLW METAR 2019/12/11 12:15 UTC NOAA

KGLW 111215Z AUTO 00000KT 10SM CLR M07/M08 A3046 RMK AO2 T10721080


Station Type Date Time Source
KGLW Decoded METAR 2019/12/11 12:15 UTC NOAA

Glasgow, Glasgow Municipal Airport, KY, United States (KGLW) 37-01-54N 085-57-13W
Dec 11, 2019 - 07:15 AM EST / 2019.12.11 1215 UTC
Wind: Calm:0
Visibility: 10 mile(s):0
Sky conditions: clear
Temperature: 19.0 F (-7.2 C)
Dew Point: 17.6 F (-8.0 C)
Relative Humidity: 93%
Pressure (altimeter): 30.46 in. Hg (1031 hPa)
ob: KGLW 111215Z AUTO 00000KT 10SM CLR M07/M08 A3046 RMK AO2 T10721080
cycle: 12

Station Type Date Time Source
KGLW TAF UTC NOAA

Error!

Example: see airport list